Ocean View, Delaware
Current Conditions -  °F | °C
As of 1:53 PM on Tuesday 21 Oct 2014 (Local Time) from KOXB Reporting Station
Scattered Clouds Scattered Clouds  
Wind Chill: 70°   Ceiling: Unl
Heat Index: 70°   Visibility: 10mi
Dew Point: 56°   Wind: 5mph
Humidity: 61%   Direction: 200°SSW
Pressure: 29.81"   Gusts: NA
Location:  38.55°N, 75.09°W
Report Text: KOXB 211753Z AUTO 20004KT 10SM FEW035 SCT050 SCT090 21/13 A2981 RMK AO2 SLP095 60000 T02110133 10222 20156 58019 TSNO
Loading
Personal Weather Stations






























Interactive Weather Map
Tropical Storm Tracking
New forecast layout! Learn more

10-Day Weather Forecast

Advertisements
Track Severe Weather on mobile